sensor_id;sensor_type;location;lat;lon;timestamp;pressure;altitude;pressure_sealevel;temperature;humidity
83633;BME280;73595;53.084;6.696;2024-03-22T00:01:39;101963.13;;;9.01;92.02
83633;BME280;73595;53.084;6.696;2024-03-22T00:04:04;101992.72;;;9.16;92.32
83633;BME280;73595;53.084;6.696;2024-03-22T00:06:29;101984.78;;;9.16;92.18
83633;BME280;73595;53.084;6.696;2024-03-22T00:08:56;101974.06;;;9.17;91.86
83633;BME280;73595;53.084;6.696;2024-03-22T00:11:21;101971.25;;;9.09;91.96
83633;BME280;73595;53.084;6.696;2024-03-22T00:13:47;101947.72;;;9.06;92.02
83633;BME280;73595;53.084;6.696;2024-03-22T00:16:12;101964.19;;;9.19;92.33
83633;BME280;73595;53.084;6.696;2024-03-22T00:18:37;101979.81;;;9.22;92.04
83633;BME280;73595;53.084;6.696;2024-03-22T00:21:03;101972.41;;;9.16;92.22
83633;BME280;73595;53.084;6.696;2024-03-22T00:23:28;101972.97;;;9.20;92.49
83633;BME280;73595;53.084;6.696;2024-03-22T00:25:55;101971.16;;;9.20;93.10
83633;BME280;73595;53.084;6.696;2024-03-22T00:28:20;101974.97;;;9.28;92.42
83633;BME280;73595;53.084;6.696;2024-03-22T00:30:45;101963.41;;;9.29;92.72
83633;BME280;73595;53.084;6.696;2024-03-22T00:33:11;101949.75;;;9.23;92.79
83633;BME280;73595;53.084;6.696;2024-03-22T00:35:36;101925.06;;;9.13;92.69
83633;BME280;73595;53.084;6.696;2024-03-22T00:38:01;101942.94;;;9.31;92.53
83633;BME280;73595;53.084;6.696;2024-03-22T00:40:27;101937.66;;;9.31;92.85
83633;BME280;73595;53.084;6.696;2024-03-22T00:42:52;101913.56;;;9.24;92.96
83633;BME280;73595;53.084;6.696;2024-03-22T00:45:17;101925.72;;;9.36;92.61
83633;BME280;73595;53.084;6.696;2024-03-22T00:47:43;101914.25;;;9.26;92.89
83633;BME280;73595;53.084;6.696;2024-03-22T00:50:08;101920.56;;;9.35;92.89
83633;BME280;73595;53.084;6.696;2024-03-22T00:52:34;101904.13;;;9.31;92.88
83633;BME280;73595;53.084;6.696;2024-03-22T00:54:59;101886.00;;;9.27;92.89
83633;BME280;73595;53.084;6.696;2024-03-22T00:57:24;101900.69;;;9.40;92.97
83633;BME280;73595;53.084;6.696;2024-03-22T00:59:50;101895.25;;;9.42;92.89
83633;BME280;73595;53.084;6.696;2024-03-22T01:02:15;101889.22;;;9.40;93.04
83633;BME280;73595;53.084;6.696;2024-03-22T01:04:41;101883.00;;;9.41;93.32
83633;BME280;73595;53.084;6.696;2024-03-22T01:07:06;101870.47;;;9.43;92.96
83633;BME280;73595;53.084;6.696;2024-03-22T01:09:31;101858.47;;;9.39;93.05
83633;BME280;73595;53.084;6.696;2024-03-22T01:11:56;101847.16;;;9.27;93.23
83633;BME280;73595;53.084;6.696;2024-03-22T01:14:22;101872.13;;;9.44;93.34
83633;BME280;73595;53.084;6.696;2024-03-22T01:16:47;101865.72;;;9.46;93.42
83633;BME280;73595;53.084;6.696;2024-03-22T01:19:13;101868.34;;;9.46;93.52
83633;BME280;73595;53.084;6.696;2024-03-22T01:21:38;101830.22;;;9.30;93.24
83633;BME280;73595;53.084;6.696;2024-03-22T01:24:03;101836.63;;;9.37;93.73
83633;BME280;73595;53.084;6.696;2024-03-22T01:26:29;101853.22;;;9.48;93.76
83633;BME280;73595;53.084;6.696;2024-03-22T01:28:54;101838.31;;;9.47;93.70
83633;BME280;73595;53.084;6.696;2024-03-22T01:31:19;101839.69;;;9.52;93.85
83633;BME280;73595;53.084;6.696;2024-03-22T01:33:44;101821.19;;;9.42;94.01
83633;BME280;73595;53.084;6.696;2024-03-22T01:36:10;101833.56;;;9.51;94.03
83633;BME280;73595;53.084;6.696;2024-03-22T01:38:35;101822.00;;;9.42;94.22
83633;BME280;73595;53.084;6.696;2024-03-22T01:41:00;101813.78;;;9.36;94.41
83633;BME280;73595;53.084;6.696;2024-03-22T01:43:26;101808.34;;;9.37;94.56
83633;BME280;73595;53.084;6.696;2024-03-22T01:45:51;101824.94;;;9.49;94.56
83633;BME280;73595;53.084;6.696;2024-03-22T01:48:17;101798.31;;;9.31;94.81
83633;BME280;73595;53.084;6.696;2024-03-22T01:50:42;101824.66;;;9.52;94.70
83633;BME280;73595;53.084;6.696;2024-03-22T01:53:08;101826.59;;;9.50;95.02
83633;BME280;73595;53.084;6.696;2024-03-22T01:55:34;101813.25;;;9.52;94.93
83633;BME280;73595;53.084;6.696;2024-03-22T01:57:59;101811.59;;;9.60;94.69
83633;BME280;73595;53.084;6.696;2024-03-22T02:00:25;101809.34;;;9.65;94.70
83633;BME280;73595;53.084;6.696;2024-03-22T02:02:50;101809.06;;;9.68;95.06
83633;BME280;73595;53.084;6.696;2024-03-22T02:05:17;101813.13;;;9.72;94.82
83633;BME280;73595;53.084;6.696;2024-03-22T02:07:47;101803.91;;;9.76;94.94
83633;BME280;73595;53.084;6.696;2024-03-22T02:10:13;101796.94;;;9.75;95.10
83633;BME280;73595;53.084;6.696;2024-03-22T02:12:39;101816.03;;;9.79;95.06
83633;BME280;73595;53.084;6.696;2024-03-22T02:15:06;101801.00;;;9.80;95.08
83633;BME280;73595;53.084;6.696;2024-03-22T02:17:32;101800.28;;;9.77;95.18
83633;BME280;73595;53.084;6.696;2024-03-22T02:19:58;101787.19;;;9.76;95.37
83633;BME280;73595;53.084;6.696;2024-03-22T02:22:24;101793.88;;;9.80;95.72
83633;BME280;73595;53.084;6.696;2024-03-22T02:24:49;101762.41;;;9.77;95.40
83633;BME280;73595;53.084;6.696;2024-03-22T02:27:14;101765.19;;;9.75;95.24
83633;BME280;73595;53.084;6.696;2024-03-22T02:29:40;101752.66;;;9.68;95.82
83633;BME280;73595;53.084;6.696;2024-03-22T02:32:05;101764.91;;;9.78;96.10
83633;BME280;73595;53.084;6.696;2024-03-22T02:34:31;101743.44;;;9.72;95.93
83633;BME280;73595;53.084;6.696;2024-03-22T02:36:56;101758.78;;;9.88;96.14
83633;BME280;73595;53.084;6.696;2024-03-22T02:39:22;101725.78;;;9.63;95.79
83633;BME280;73595;53.084;6.696;2024-03-22T02:41:47;101736.38;;;9.72;96.48
83633;BME280;73595;53.084;6.696;2024-03-22T02:44:12;101750.25;;;9.84;96.56
83633;BME280;73595;53.084;6.696;2024-03-22T02:46:38;101746.94;;;9.82;96.35
83633;BME280;73595;53.084;6.696;2024-03-22T02:49:03;101762.50;;;9.85;96.85
83633;BME280;73595;53.084;6.696;2024-03-22T02:51:28;101735.09;;;9.76;97.03
83633;BME280;73595;53.084;6.696;2024-03-22T02:53:54;101754.16;;;9.90;97.06
83633;BME280;73595;53.084;6.696;2024-03-22T02:56:19;101748.88;;;9.90;96.91
83633;BME280;73595;53.084;6.696;2024-03-22T02:58:45;101546.78;;;8.78;96.62
83633;BME280;73595;53.084;6.696;2024-03-22T03:01:10;101729.75;;;9.96;97.36
83633;BME280;73595;53.084;6.696;2024-03-22T03:03:35;101736.31;;;10.01;96.68
83633;BME280;73595;53.084;6.696;2024-03-22T03:06:01;101727.94;;;9.96;97.16
83633;BME280;73595;53.084;6.696;2024-03-22T03:08:26;101691.25;;;9.74;97.66
83633;BME280;73595;53.084;6.696;2024-03-22T03:10:52;101718.50;;;9.94;97.64
83633;BME280;73595;53.084;6.696;2024-03-22T03:13:17;101718.50;;;9.94;97.54
83633;BME280;73595;53.084;6.696;2024-03-22T03:15:43;101708.59;;;9.96;97.52
83633;BME280;73595;53.084;6.696;2024-03-22T03:18:08;101672.00;;;9.82;97.32
83633;BME280;73595;53.084;6.696;2024-03-22T03:20:33;101644.88;;;9.70;97.52
83633;BME280;73595;53.084;6.696;2024-03-22T03:22:59;101671.41;;;9.88;97.57
83633;BME280;73595;53.084;6.696;2024-03-22T03:25:25;101690.19;;;9.94;97.72
83633;BME280;73595;53.084;6.696;2024-03-22T03:27:51;101686.16;;;10.00;97.80
83633;BME280;73595;53.084;6.696;2024-03-22T03:30:17;101669.72;;;9.96;97.61
83633;BME280;73595;53.084;6.696;2024-03-22T03:32:42;101665.13;;;9.89;98.04
83633;BME280;73595;53.084;6.696;2024-03-22T03:35:07;101673.59;;;10.02;97.76
83633;BME280;73595;53.084;6.696;2024-03-22T03:37:33;101646.75;;;9.87;97.68
83633;BME280;73595;53.084;6.696;2024-03-22T03:39:58;101653.03;;;9.86;97.86
83633;BME280;73595;53.084;6.696;2024-03-22T03:42:24;101667.47;;;10.01;97.83
83633;BME280;73595;53.084;6.696;2024-03-22T03:44:49;101614.94;;;9.69;97.77
83633;BME280;73595;53.084;6.696;2024-03-22T03:47:14;101656.47;;;9.96;98.15
83633;BME280;73595;53.084;6.696;2024-03-22T03:49:40;101661.34;;;10.01;98.01
83633;BME280;73595;53.084;6.696;2024-03-22T03:52:05;101636.44;;;9.84;98.17
83633;BME280;73595;53.084;6.696;2024-03-22T03:54:31;101658.38;;;10.04;98.00
83633;BME280;73595;53.084;6.696;2024-03-22T03:56:56;101661.59;;;10.08;98.02
83633;BME280;73595;53.084;6.696;2024-03-22T03:59:21;101658.25;;;10.06;97.82
83633;BME280;73595;53.084;6.696;2024-03-22T04:01:47;101637.78;;;9.98;97.94
83633;BME280;73595;53.084;6.696;2024-03-22T04:04:12;101653.50;;;10.09;97.89
83633;BME280;73595;53.084;6.696;2024-03-22T04:06:38;101642.66;;;10.02;97.93
83633;BME280;73595;53.084;6.696;2024-03-22T04:09:03;101634.88;;;10.01;97.79
83633;BME280;73595;53.084;6.696;2024-03-22T04:11:29;101637.19;;;10.04;97.74
83633;BME280;73595;53.084;6.696;2024-03-22T04:13:54;101639.84;;;10.04;97.83
83633;BME280;73595;53.084;6.696;2024-03-22T04:16:19;101639.81;;;10.14;98.19
83633;BME280;73595;53.084;6.696;2024-03-22T04:18:45;101632.22;;;10.01;97.87
83633;BME280;73595;53.084;6.696;2024-03-22T04:21:10;101649.75;;;10.12;97.78
83633;BME280;73595;53.084;6.696;2024-03-22T04:23:35;101643.22;;;10.06;97.78
83633;BME280;73595;53.084;6.696;2024-03-22T04:26:01;101648.59;;;10.14;97.92
83633;BME280;73595;53.084;6.696;2024-03-22T04:28:28;101644.69;;;10.18;98.04
83633;BME280;73595;53.084;6.696;2024-03-22T04:31:01;101656.94;;;10.19;97.89
83633;BME280;73595;53.084;6.696;2024-03-22T04:33:28;101649.28;;;10.16;98.11
83633;BME280;73595;53.084;6.696;2024-03-22T04:35:54;101651.91;;;10.16;97.96
83633;BME280;73595;53.084;6.696;2024-03-22T04:38:21;101627.91;;;10.00;97.81
83633;BME280;73595;53.084;6.696;2024-03-22T04:40:47;101622.28;;;10.13;97.65
83633;BME280;73595;53.084;6.696;2024-03-22T04:43:12;101620.97;;;10.17;97.69
83633;BME280;73595;53.084;6.696;2024-03-22T04:45:37;101606.25;;;10.04;97.54
83633;BME280;73595;53.084;6.696;2024-03-22T04:48:04;101586.97;;;9.94;97.49
83633;BME280;73595;53.084;6.696;2024-03-22T04:50:30;101590.94;;;10.08;97.24
83633;BME280;73595;53.084;6.696;2024-03-22T04:52:55;101590.66;;;10.11;97.29
83633;BME280;73595;53.084;6.696;2024-03-22T04:55:21;101587.84;;;10.13;97.20
83633;BME280;73595;53.084;6.696;2024-03-22T04:57:46;101596.03;;;10.19;96.68
83633;BME280;73595;53.084;6.696;2024-03-22T05:00:12;101580.16;;;10.19;96.58
83633;BME280;73595;53.084;6.696;2024-03-22T05:02:37;101580.16;;;10.19;96.70
83633;BME280;73595;53.084;6.696;2024-03-22T05:05:03;101574.00;;;10.19;96.82
83633;BME280;73595;53.084;6.696;2024-03-22T05:07:28;101574.31;;;10.16;96.66
83633;BME280;73595;53.084;6.696;2024-03-22T05:09:54;101589.34;;;10.15;96.84
83633;BME280;73595;53.084;6.696;2024-03-22T05:12:19;101574.44;;;10.14;96.83
83633;BME280;73595;53.084;6.696;2024-03-22T05:14:44;101581.72;;;10.12;96.91
83633;BME280;73595;53.084;6.696;2024-03-22T05:17:10;101581.72;;;10.12;97.08
83633;BME280;73595;53.084;6.696;2024-03-22T05:19:35;101556.03;;;9.95;96.52
83633;BME280;73595;53.084;6.696;2024-03-22T05:22:00;101589.66;;;10.12;97.22
83633;BME280;73595;53.084;6.696;2024-03-22T05:24:26;101586.06;;;10.03;97.16
83633;BME280;73595;53.084;6.696;2024-03-22T05:26:51;101602.06;;;10.12;97.11
83633;BME280;73595;53.084;6.696;2024-03-22T05:29:17;101592.44;;;10.11;96.83
83633;BME280;73595;53.084;6.696;2024-03-22T05:31:47;101597.72;;;10.11;97.10
83633;BME280;73595;53.084;6.696;2024-03-22T05:34:14;101594.84;;;10.04;96.48
83633;BME280;73595;53.084;6.696;2024-03-22T05:36:42;101605.16;;;10.07;96.91
83633;BME280;73595;53.084;6.696;2024-03-22T05:39:08;101596.38;;;10.07;96.81
83633;BME280;73595;53.084;6.696;2024-03-22T05:41:36;101590.53;;;10.03;97.12
83633;BME280;73595;53.084;6.696;2024-03-22T05:44:02;101578.88;;;9.96;97.53
83633;BME280;73595;53.084;6.696;2024-03-22T05:46:36;101601.19;;;9.93;98.66
83633;BME280;73595;53.084;6.696;2024-03-22T05:49:02;101595.75;;;9.85;99.67
83633;BME280;73595;53.084;6.696;2024-03-22T05:51:28;101581.75;;;9.75;100.00
83633;BME280;73595;53.084;6.696;2024-03-22T05:53:53;101601.78;;;9.77;100.00
83633;BME280;73595;53.084;6.696;2024-03-22T05:56:18;101579.00;;;9.67;100.00
83633;BME280;73595;53.084;6.696;2024-03-22T05:58:44;101585.00;;;9.69;100.00
83633;BME280;73595;53.084;6.696;2024-03-22T06:01:09;101572.00;;;9.75;100.00
83633;BME280;73595;53.084;6.696;2024-03-22T06:03:34;101570.63;;;9.71;100.00
83633;BME280;73595;53.084;6.696;2024-03-22T06:06:00;101573.97;;;9.73;100.00
83633;BME280;73595;53.084;6.696;2024-03-22T06:08:28;101581.50;;;9.68;100.00
83633;BME280;73595;53.084;6.696;2024-03-22T06:10:55;101567.72;;;9.65;100.00
83633;BME280;73595;53.084;6.696;2024-03-22T06:13:23;101581.09;;;9.63;100.00
83633;BME280;73595;53.084;6.696;2024-03-22T06:15:49;101559.84;;;9.55;100.00
83633;BME280;73595;53.084;6.696;2024-03-22T06:18:15;101572.19;;;9.64;100.00
83633;BME280;73595;53.084;6.696;2024-03-22T06:20:40;101570.94;;;9.68;100.00
83633;BME280;73595;53.084;6.696;2024-03-22T06:23:07;101556.38;;;9.55;100.00
83633;BME280;73595;53.084;6.696;2024-03-22T06:25:33;101568.19;;;9.60;100.00
83633;BME280;73595;53.084;6.696;2024-03-22T06:27:58;101570.13;;;9.58;100.00
83633;BME280;73595;53.084;6.696;2024-03-22T06:30:23;101572.34;;;9.63;100.00
83633;BME280;73595;53.084;6.696;2024-03-22T06:32:48;101549.84;;;9.49;100.00
83633;BME280;73595;53.084;6.696;2024-03-22T06:35:14;101558.13;;;9.64;100.00
83633;BME280;73595;53.084;6.696;2024-03-22T06:37:40;101556.22;;;9.56;100.00
83633;BME280;73595;53.084;6.696;2024-03-22T06:40:07;101532.16;;;9.40;100.00
83633;BME280;73595;53.084;6.696;2024-03-22T06:42:32;101576.66;;;9.64;100.00
83633;BME280;73595;53.084;6.696;2024-03-22T06:44:58;101577.63;;;9.63;100.00
83633;BME280;73595;53.084;6.696;2024-03-22T06:47:23;101544.78;;;9.56;100.00
83633;BME280;73595;53.084;6.696;2024-03-22T06:49:48;101562.59;;;9.63;100.00
83633;BME280;73595;53.084;6.696;2024-03-22T06:52:14;101571.06;;;9.67;100.00
83633;BME280;73595;53.084;6.696;2024-03-22T06:54:40;101549.78;;;9.59;100.00
83633;BME280;73595;53.084;6.696;2024-03-22T06:57:06;101566.91;;;9.64;100.00
83633;BME280;73595;53.084;6.696;2024-03-22T06:59:31;101552.31;;;9.60;100.00
83633;BME280;73595;53.084;6.696;2024-03-22T07:01:57;101553.66;;;9.64;100.00
83633;BME280;73595;53.084;6.696;2024-03-22T07:04:22;101555.03;;;9.68;100.00
83633;BME280;73595;53.084;6.696;2024-03-22T07:06:47;101561.16;;;9.69;100.00
83633;BME280;73595;53.084;6.696;2024-03-22T07:09:13;101531.72;;;9.54;100.00
83633;BME280;73595;53.084;6.696;2024-03-22T07:11:38;101543.22;;;9.63;100.00
83633;BME280;73595;53.084;6.696;2024-03-22T07:14:03;101544.38;;;9.60;100.00
83633;BME280;73595;53.084;6.696;2024-03-22T07:16:29;101537.22;;;9.70;100.00
83633;BME280;73595;53.084;6.696;2024-03-22T07:18:54;101538.88;;;9.71;100.00
83633;BME280;73595;53.084;6.696;2024-03-22T07:21:19;101538.03;;;9.71;100.00
83633;BME280;73595;53.084;6.696;2024-03-22T07:23:45;101539.94;;;9.78;99.88
83633;BME280;73595;53.084;6.696;2024-03-22T07:26:10;101540.94;;;9.77;99.52
83633;BME280;73595;53.084;6.696;2024-03-22T07:28:35;101535.78;;;9.76;99.56
83633;BME280;73595;53.084;6.696;2024-03-22T07:31:01;101506.88;;;9.65;99.04
83633;BME280;73595;53.084;6.696;2024-03-22T07:33:26;101528.09;;;9.83;98.94
83633;BME280;73595;53.084;6.696;2024-03-22T07:35:51;101526.44;;;9.82;99.11
83633;BME280;73595;53.084;6.696;2024-03-22T07:38:19;101528.25;;;9.81;99.17
83633;BME280;73595;53.084;6.696;2024-03-22T07:40:44;101525.63;;;9.71;99.46
83633;BME280;73595;53.084;6.696;2024-03-22T07:43:10;101530.94;;;9.71;99.23
83633;BME280;73595;53.084;6.696;2024-03-22T07:45:36;101537.22;;;9.70;99.60
83633;BME280;73595;53.084;6.696;2024-03-22T07:48:01;101547.50;;;9.73;100.00
83633;BME280;73595;53.084;6.696;2024-03-22T07:50:27;101547.25;;;9.67;100.00
83633;BME280;73595;53.084;6.696;2024-03-22T07:52:52;101516.53;;;9.56;100.00
83633;BME280;73595;53.084;6.696;2024-03-22T07:55:18;101533.13;;;9.48;100.00
83633;BME280;73595;53.084;6.696;2024-03-22T07:57:44;101502.81;;;9.43;100.00
83633;BME280;73595;53.084;6.696;2024-03-22T08:00:09;101544.47;;;9.68;100.00
83633;BME280;73595;53.084;6.696;2024-03-22T08:02:35;101532.41;;;9.56;100.00
83633;BME280;73595;53.084;6.696;2024-03-22T08:05:01;101503.94;;;9.40;100.00
83633;BME280;73595;53.084;6.696;2024-03-22T08:07:27;101528.00;;;9.47;100.00
83633;BME280;73595;53.084;6.696;2024-03-22T08:09:52;101524.06;;;9.51;100.00
83633;BME280;73595;53.084;6.696;2024-03-22T08:12:17;101541.72;;;9.60;100.00
83633;BME280;73595;53.084;6.696;2024-03-22T08:14:44;101530.91;;;9.54;100.00
83633;BME280;73595;53.084;6.696;2024-03-22T08:17:10;101552.31;;;9.60;100.00
83633;BME280;73595;53.084;6.696;2024-03-22T08:19:37;101545.63;;;9.56;100.00
83633;BME280;73595;53.084;6.696;2024-03-22T08:22:03;101516.31;;;9.40;100.00
83633;BME280;73595;53.084;6.696;2024-03-22T08:24:28;101529.66;;;9.48;100.00
83633;BME280;73595;53.084;6.696;2024-03-22T08:26:53;101534.66;;;9.51;100.00
83633;BME280;73595;53.084;6.696;2024-03-22T08:29:19;101537.25;;;9.61;100.00
83633;BME280;73595;53.084;6.696;2024-03-22T08:31:44;101538.38;;;9.58;100.00
83633;BME280;73595;53.084;6.696;2024-03-22T08:34:09;101503.22;;;9.48;100.00
83633;BME280;73595;53.084;6.696;2024-03-22T08:36:35;101510.06;;;9.41;100.00
83633;BME280;73595;53.084;6.696;2024-03-22T08:39:00;101528.13;;;9.45;100.00
83633;BME280;73595;53.084;6.696;2024-03-22T08:41:26;101539.34;;;9.57;100.00
83633;BME280;73595;53.084;6.696;2024-03-22T08:43:51;101528.53;;;9.50;100.00
83633;BME280;73595;53.084;6.696;2024-03-22T08:46:16;101524.75;;;9.53;100.00
83633;BME280;73595;53.084;6.696;2024-03-22T08:48:42;101520.94;;;9.65;100.00
83633;BME280;73595;53.084;6.696;2024-03-22T08:51:07;101505.50;;;9.61;100.00
83633;BME280;73595;53.084;6.696;2024-03-22T08:53:32;101509.50;;;9.65;100.00
83633;BME280;73595;53.084;6.696;2024-03-22T08:55:58;101513.47;;;9.61;100.00
83633;BME280;73595;53.084;6.696;2024-03-22T08:58:23;101516.94;;;9.61;100.00
83633;BME280;73595;53.084;6.696;2024-03-22T09:00:49;101518.59;;;9.62;100.00
83633;BME280;73595;53.084;6.696;2024-03-22T09:03:14;101513.00;;;9.65;100.00
83633;BME280;73595;53.084;6.696;2024-03-22T09:05:40;101513.06;;;9.56;100.00
83633;BME280;73595;53.084;6.696;2024-03-22T09:08:06;101523.31;;;9.59;100.00
83633;BME280;73595;53.084;6.696;2024-03-22T09:10:31;101524.72;;;9.63;100.00
83633;BME280;73595;53.084;6.696;2024-03-22T09:12:57;101522.75;;;9.65;100.00
83633;BME280;73595;53.084;6.696;2024-03-22T09:15:22;101525.84;;;9.60;100.00
83633;BME280;73595;53.084;6.696;2024-03-22T09:17:48;101523.56;;;9.65;100.00
83633;BME280;73595;53.084;6.696;2024-03-22T09:20:13;101524.16;;;9.59;100.00
83633;BME280;73595;53.084;6.696;2024-03-22T09:22:39;101510.25;;;9.57;100.00
83633;BME280;73595;53.084;6.696;2024-03-22T09:25:05;101520.09;;;9.65;100.00
83633;BME280;73595;53.084;6.696;2024-03-22T09:27:31;101531.38;;;9.67;100.00
83633;BME280;73595;53.084;6.696;2024-03-22T09:29:57;101519.00;;;9.67;100.00
83633;BME280;73595;53.084;6.696;2024-03-22T09:32:22;101525.63;;;9.71;100.00
83633;BME280;73595;53.084;6.696;2024-03-22T09:34:48;101506.78;;;9.57;100.00
83633;BME280;73595;53.084;6.696;2024-03-22T09:37:15;101526.22;;;9.65;100.00
83633;BME280;73595;53.084;6.696;2024-03-22T09:39:40;101521.91;;;9.64;100.00
83633;BME280;73595;53.084;6.696;2024-03-22T09:42:06;101523.88;;;9.62;100.00
83633;BME280;73595;53.084;6.696;2024-03-22T09:44:32;101530.09;;;9.71;100.00
83633;BME280;73595;53.084;6.696;2024-03-22T09:46:59;101517.75;;;9.62;100.00
83633;BME280;73595;53.084;6.696;2024-03-22T09:49:25;101527.22;;;9.64;100.00
83633;BME280;73595;53.084;6.696;2024-03-22T09:51:51;101530.56;;;9.66;100.00
83633;BME280;73595;53.084;6.696;2024-03-22T09:54:17;101526.34;;;9.73;100.00
83633;BME280;73595;53.084;6.696;2024-03-22T09:56:43;101529.13;;;9.72;100.00
83633;BME280;73595;53.084;6.696;2024-03-22T09:59:10;101524.28;;;9.67;100.00
83633;BME280;73595;53.084;6.696;2024-03-22T10:01:36;101531.09;;;9.70;100.00
83633;BME280;73595;53.084;6.696;2024-03-22T10:04:01;101532.63;;;9.72;100.00
83633;BME280;73595;53.084;6.696;2024-03-22T10:06:29;101526.88;;;9.77;100.00
83633;BME280;73595;53.084;6.696;2024-03-22T10:08:57;101519.97;;;9.66;100.00
83633;BME280;73595;53.084;6.696;2024-03-22T10:11:22;101532.47;;;9.74;100.00
83633;BME280;73595;53.084;6.696;2024-03-22T10:13:48;101526.03;;;9.76;100.00
83633;BME280;73595;53.084;6.696;2024-03-22T10:16:16;101519.38;;;9.72;100.00
83633;BME280;73595;53.084;6.696;2024-03-22T10:18:41;101521.41;;;9.78;100.00
83633;BME280;73595;53.084;6.696;2024-03-22T10:21:07;101532.56;;;9.82;100.00
83633;BME280;73595;53.084;6.696;2024-03-22T10:23:32;101530.91;;;9.81;100.00
83633;BME280;73595;53.084;6.696;2024-03-22T10:25:58;101512.16;;;9.65;100.00
83633;BME280;73595;53.084;6.696;2024-03-22T10:28:27;101532.56;;;9.82;100.00
83633;BME280;73595;53.084;6.696;2024-03-22T10:30:53;101537.28;;;9.78;100.00
83633;BME280;73595;53.084;6.696;2024-03-22T10:33:20;101531.63;;;9.73;100.00
83633;BME280;73595;53.084;6.696;2024-03-22T10:35:53;101531.56;;;9.83;100.00
83633;BME280;73595;53.084;6.696;2024-03-22T10:38:19;101529.47;;;9.87;100.00
83633;BME280;73595;53.084;6.696;2024-03-22T10:40:46;101533.09;;;9.86;100.00
83633;BME280;73595;53.084;6.696;2024-03-22T10:43:12;101505.03;;;9.75;100.00
83633;BME280;73595;53.084;6.696;2024-03-22T10:45:38;101537.59;;;10.03;100.00
83633;BME280;73595;53.084;6.696;2024-03-22T10:48:10;101528.06;;;10.10;100.00
83633;BME280;73595;53.084;6.696;2024-03-22T10:50:40;101529.47;;;10.04;100.00
83633;BME280;73595;53.084;6.696;2024-03-22T10:53:12;101512.53;;;9.97;100.00
83633;BME280;73595;53.084;6.696;2024-03-22T10:55:42;101533.66;;;10.07;100.00
83633;BME280;73595;53.084;6.696;2024-03-22T10:58:15;101498.31;;;9.81;100.00
83633;BME280;73595;53.084;6.696;2024-03-22T11:00:42;101526.00;;;10.04;100.00
83633;BME280;73595;53.084;6.696;2024-03-22T11:03:12;101517.34;;;10.12;100.00
83633;BME280;73595;53.084;6.696;2024-03-22T11:05:45;101516.34;;;10.13;100.00
83633;BME280;73595;53.084;6.696;2024-03-22T11:08:11;101512.88;;;10.12;100.00
83633;BME280;73595;53.084;6.696;2024-03-22T11:10:37;101497.19;;;10.01;100.00
83633;BME280;73595;53.084;6.696;2024-03-22T11:13:03;101480.84;;;9.88;100.00
83633;BME280;73595;53.084;6.696;2024-03-22T11:15:29;101510.94;;;10.04;100.00
83633;BME280;73595;53.084;6.696;2024-03-22T11:17:56;101520.34;;;9.99;100.00
83633;BME280;73595;53.084;6.696;2024-03-22T11:20:21;101502.94;;;9.96;100.00
83633;BME280;73595;53.084;6.696;2024-03-22T11:22:46;101505.97;;;10.01;100.00
83633;BME280;73595;53.084;6.696;2024-03-22T11:25:12;101483.19;;;9.91;100.00
83633;BME280;73595;53.084;6.696;2024-03-22T11:27:37;101472.50;;;9.83;100.00
83633;BME280;73595;53.084;6.696;2024-03-22T11:30:03;101502.88;;;10.06;100.00
83633;BME280;73595;53.084;6.696;2024-03-22T11:32:29;101505.38;;;10.08;100.00
83633;BME280;73595;53.084;6.696;2024-03-22T11:34:54;101493.13;;;10.07;100.00
83633;BME280;73595;53.084;6.696;2024-03-22T11:37:20;101495.69;;;10.16;100.00
83633;BME280;73595;53.084;6.696;2024-03-22T11:39:45;101490.88;;;10.12;100.00
83633;BME280;73595;53.084;6.696;2024-03-22T11:42:11;101499.91;;;10.09;100.00
83633;BME280;73595;53.084;6.696;2024-03-22T11:44:37;101507.72;;;10.11;100.00
83633;BME280;73595;53.084;6.696;2024-03-22T11:47:04;101501.06;;;10.07;100.00
83633;BME280;73595;53.084;6.696;2024-03-22T11:49:30;101504.16;;;10.02;100.00
83633;BME280;73595;53.084;6.696;2024-03-22T11:51:56;101492.13;;;10.08;100.00
83633;BME280;73595;53.084;6.696;2024-03-22T11:54:24;101486.25;;;10.14;100.00
83633;BME280;73595;53.084;6.696;2024-03-22T11:56:49;101487.44;;;10.01;100.00
83633;BME280;73595;53.084;6.696;2024-03-22T11:59:15;101472.34;;;9.84;100.00
83633;BME280;73595;53.084;6.696;2024-03-22T12:01:44;101456.94;;;9.80;100.00
83633;BME280;73595;53.084;6.696;2024-03-22T12:04:09;101485.47;;;10.03;100.00
83633;BME280;73595;53.084;6.696;2024-03-22T12:06:41;101489.19;;;10.11;100.00
83633;BME280;73595;53.084;6.696;2024-03-22T12:09:07;101486.59;;;10.01;100.00
83633;BME280;73595;53.084;6.696;2024-03-22T12:11:33;101474.38;;;10.00;100.00
83633;BME280;73595;53.084;6.696;2024-03-22T12:13:58;101433.19;;;9.70;100.00
83633;BME280;73595;53.084;6.696;2024-03-22T12:16:24;101485.63;;;10.02;99.64
83633;BME280;73595;53.084;6.696;2024-03-22T12:18:49;101491.75;;;10.20;100.00
83633;BME280;73595;53.084;6.696;2024-03-22T12:21:14;101481.38;;;10.09;99.63
83633;BME280;73595;53.084;6.696;2024-03-22T12:23:40;101494.03;;;10.15;100.00
83633;BME280;73595;53.084;6.696;2024-03-22T12:26:05;101484.59;;;10.13;100.00
83633;BME280;73595;53.084;6.696;2024-03-22T12:28:31;101477.06;;;9.90;100.00
83633;BME280;73595;53.084;6.696;2024-03-22T12:30:56;101487.72;;;9.81;99.98
83633;BME280;73595;53.084;6.696;2024-03-22T12:33:22;101498.47;;;9.79;99.44
83633;BME280;73595;53.084;6.696;2024-03-22T12:35:47;101471.00;;;9.80;98.84
83633;BME280;73595;53.084;6.696;2024-03-22T12:38:13;101480.63;;;10.17;99.17
83633;BME280;73595;53.084;6.696;2024-03-22T12:40:40;101478.66;;;10.01;97.38
83633;BME280;73595;53.084;6.696;2024-03-22T12:43:05;101450.91;;;10.05;97.31
83633;BME280;73595;53.084;6.696;2024-03-22T12:45:31;101462.47;;;10.22;97.55